Time;durP1;ratioP1;P1;durP2;ratioP2;P2;SDS_P1;SDS_P2;PMS_P1;PMS_P2;Temp;Humidity;BMP_temperature;BMP_pressure;BME280_temperature;BME280_humidity;BME280_pressure;Samples;Min_cycle;Max_cycle;Signal;HPM_P1;HPM_P2
2021/11/04 00:01:04;;;;;;;107.55;46.42;;;7.10;92.90;;;;;;5075792;28;20033;-38
2021/11/04 00:03:30;;;;;;;109.63;42.83;;;7.00;92.70;;;;;;5075489;28;20028;-38
2021/11/04 00:05:56;;;;;;;108.70;43.75;;;7.00;92.60;;;;;;5075719;28;20051;-39
2021/11/04 00:08:23;;;;;;;117.22;45.45;;;7.10;92.60;;;;;;5076103;28;20035;-38
2021/11/04 00:10:48;;;;;;;102.97;42.50;;;7.20;92.50;;;;;;5076005;28;20043;-39
2021/11/04 00:13:14;;;;;;;96.57;42.25;;;7.20;92.30;;;;;;5075630;28;20460;-38
2021/11/04 00:15:40;;;;;;;100.22;40.20;;;7.10;92.40;;;;;;5075926;28;20031;-38
2021/11/04 00:18:06;;;;;;;87.30;41.60;;;7.10;92.40;;;;;;5076211;28;20027;-38
2021/11/04 00:20:31;;;;;;;101.10;43.05;;;7.10;92.50;;;;;;5076020;28;20541;-37
2021/11/04 00:22:57;;;;;;;98.95;41.40;;;7.20;92.50;;;;;;5075804;28;20052;-38
2021/11/04 00:25:23;;;;;;;97.63;42.42;;;7.20;92.20;;;;;;5074701;28;20089;-37
2021/11/04 00:27:49;;;;;;;103.25;43.22;;;7.30;92.20;;;;;;5075849;28;20028;-38
2021/11/04 00:30:16;;;;;;;101.35;41.55;;;7.20;92.10;;;;;;5074130;28;20093;-38
2021/11/04 00:32:51;;;;;;;97.80;41.88;;;7.30;92.00;;;;;;5075501;28;20029;-38
2021/11/04 00:35:18;;;;;;;111.72;44.92;;;7.30;91.80;;;;;;5074214;28;20025;-38
2021/11/04 00:37:44;;;;;;;99.45;43.67;;;7.30;91.90;;;;;;5075343;28;20028;-39
2021/11/04 00:40:12;;;;;;;103.57;43.17;;;7.30;92.00;;;;;;5075220;28;20040;-38
2021/11/04 00:42:39;;;;;;;110.35;44.95;;;7.30;91.80;;;;;;5075261;28;20028;-38
2021/11/04 00:45:05;;;;;;;101.75;40.42;;;7.20;92.00;;;;;;5075368;28;20039;-38
2021/11/04 00:47:30;;;;;;;97.07;41.95;;;7.20;92.10;;;;;;5075581;28;20029;-38
2021/11/04 00:49:56;;;;;;;105.65;42.60;;;7.20;92.00;;;;;;5075011;28;20097;-37
2021/11/04 00:52:22;;;;;;;98.53;43.03;;;7.10;91.90;;;;;;5074983;28;20016;-38
2021/11/04 00:54:48;;;;;;;105.75;42.40;;;7.20;92.20;;;;;;5074952;28;20464;-37
2021/11/04 00:57:14;;;;;;;104.65;43.03;;;7.20;92.00;;;;;;5075032;28;20029;-39
2021/11/04 00:59:39;;;;;;;108.68;42.47;;;7.20;92.00;;;;;;5074810;28;20473;-37
2021/11/04 01:02:05;;;;;;;102.78;41.15;;;7.10;92.20;;;;;;5074621;28;20035;-38
2021/11/04 01:04:31;;;;;;;97.45;41.55;;;7.00;92.40;;;;;;5074431;28;20029;-38
2021/11/04 01:06:56;;;;;;;99.43;41.70;;;7.10;92.50;;;;;;5074644;28;20045;-41
2021/11/04 01:09:22;;;;;;;91.88;37.97;;;7.10;92.50;;;;;;5074459;28;20017;-38
2021/11/04 01:11:48;;;;;;;81.15;37.60;;;7.10;92.40;;;;;;5073399;28;20035;-42
2021/11/04 01:14:13;;;;;;;90.15;38.45;;;7.10;92.30;;;;;;5074608;28;20021;-38
2021/11/04 01:16:39;;;;;;;79.15;35.55;;;7.10;92.30;;;;;;5073120;28;20023;-38
2021/11/04 01:19:05;;;;;;;75.22;36.85;;;7.00;92.30;;;;;;5074370;28;20032;-38
2021/11/04 01:21:31;;;;;;;80.43;35.80;;;7.00;92.50;;;;;;5075547;28;20125;-38
2021/11/04 01:23:57;;;;;;;77.43;36.50;;;7.00;92.50;;;;;;5074966;28;20469;-38
2021/11/04 01:26:22;;;;;;;87.60;37.05;;;7.00;92.50;;;;;;5073304;28;20491;-38
2021/11/04 01:28:48;;;;;;;83.97;37.00;;;7.20;92.30;;;;;;5074318;28;20423;-38
2021/11/04 01:31:13;;;;;;;85.43;38.03;;;7.10;92.10;;;;;;5074255;28;20354;-38
2021/11/04 01:33:39;;;;;;;73.80;35.28;;;7.10;91.90;;;;;;5074355;28;20020;-38
2021/11/04 01:36:05;;;;;;;83.10;37.92;;;7.10;91.80;;;;;;5074454;28;20054;-37
2021/11/04 01:38:30;;;;;;;86.22;38.42;;;7.10;91.90;;;;;;5072922;28;20051;-38
2021/11/04 01:40:56;;;;;;;86.70;38.28;;;7.10;92.00;;;;;;5074398;28;20107;-39
2021/11/04 01:43:22;;;;;;;89.20;36.95;;;7.10;91.80;;;;;;5073910;28;20024;-38
2021/11/04 01:45:49;;;;;;;98.35;41.72;;;7.20;91.60;;;;;;5074224;28;20025;-38
2021/11/04 01:48:16;;;;;;;89.15;37.95;;;7.10;91.60;;;;;;5074185;28;20051;-38
2021/11/04 01:50:42;;;;;;;89.85;39.42;;;7.10;91.70;;;;;;5073836;28;20024;-38
2021/11/04 01:53:08;;;;;;;87.95;39.13;;;7.20;91.60;;;;;;5074073;28;20029;-39
2021/11/04 01:55:34;;;;;;;97.28;39.28;;;7.10;91.30;;;;;;5073597;28;20387;-36
2021/11/04 01:58:01;;;;;;;85.95;36.03;;;7.10;91.40;;;;;;5073705;28;20099;-39
2021/11/04 02:00:30;;;;;;;98.20;40.33;;;7.20;91.60;;;;;;5073475;28;20025;-36
2021/11/04 02:02:58;;;;;;;87.75;37.65;;;7.20;91.30;;;;;;5073707;28;20384;-37
2021/11/04 02:05:33;;;;;;;99.90;40.15;;;7.10;91.10;;;;;;5072023;28;20040;-38
2021/11/04 02:08:03;;;;;;;91.78;39.20;;;7.10;91.50;;;;;;5072184;28;20094;-38
2021/11/04 02:10:58;;;;;;;94.10;40.45;;;6.90;91.50;;;;;;5073453;28;20032;-38
2021/11/04 02:13:34;;;;;;;83.80;37.90;;;6.90;91.80;;;;;;5072428;28;20028;-38
2021/11/04 02:16:02;;;;;;;87.90;37.33;;;6.90;91.90;;;;;;5073789;28;20017;-38
2021/11/04 02:18:33;;;;;;;88.47;39.25;;;6.90;91.50;;;;;;5073107;28;20017;-38
2021/11/04 02:21:23;;;;;;;83.35;39.15;;;7.10;91.40;;;;;;5072078;28;20036;-38
2021/11/04 02:24:08;;;;;;;84.82;38.58;;;7.00;91.30;;;;;;5073482;28;20085;-38
2021/11/04 02:26:35;;;;;;;89.28;37.13;;;6.90;91.10;;;;;;5073247;28;20039;-37
2021/11/04 02:29:02;;;;;;;91.72;39.28;;;7.00;91.20;;;;;;5071842;28;20128;-38
2021/11/04 02:31:30;;;;;;;90.43;37.78;;;6.90;91.20;;;;;;5073399;28;20024;-38
2021/11/04 02:33:56;;;;;;;90.78;40.70;;;6.80;91.70;;;;;;5073270;28;20094;-38
2021/11/04 02:36:23;;;;;;;86.32;35.70;;;6.90;91.60;;;;;;5073923;28;20098;-38
2021/11/04 02:38:49;;;;;;;82.00;36.17;;;6.90;91.40;;;;;;5073377;28;20027;-38
2021/11/04 02:41:15;;;;;;;78.35;34.00;;;6.90;91.20;;;;;;5071787;28;20020;-38
2021/11/04 02:43:41;;;;;;;91.75;37.10;;;6.90;91.20;;;;;;5071641;28;20438;-38
2021/11/04 02:46:08;;;;;;;83.55;37.97;;;6.80;91.50;;;;;;5073075;28;20046;-38
2021/11/04 02:48:34;;;;;;;85.85;35.95;;;6.90;91.50;;;;;;5073293;28;20056;-38
2021/11/04 02:51:00;;;;;;;79.03;33.20;;;6.80;91.60;;;;;;5073029;28;20024;-38
2021/11/04 02:53:28;;;;;;;80.88;34.78;;;6.80;91.70;;;;;;5073181;28;20491;-37
2021/11/04 02:55:54;;;;;;;76.78;34.15;;;6.80;91.70;;;;;;5073112;28;20095;-38
2021/11/04 02:58:20;;;;;;;76.10;33.63;;;6.80;91.90;;;;;;5072971;28;20024;-38
2021/11/04 03:00:52;;;;;;;88.03;36.30;;;6.90;91.70;;;;;;5072954;28;20035;-38
2021/11/04 03:03:18;;;;;;;88.82;37.63;;;7.00;91.50;;;;;;5072916;28;20380;-37
2021/11/04 03:05:44;;;;;;;80.57;34.70;;;7.10;91.00;;;;;;5072890;28;20052;-37
2021/11/04 03:08:10;;;;;;;84.95;36.63;;;7.10;90.80;;;;;;5072895;28;20055;-38
2021/11/04 03:10:36;;;;;;;85.03;36.40;;;7.00;90.70;;;;;;5072866;28;20063;-38
2021/11/04 03:13:02;;;;;;;79.22;35.05;;;7.00;90.90;;;;;;5072912;28;20528;-37
2021/11/04 03:15:33;;;;;;;85.60;34.15;;;7.00;90.90;;;;;;5072046;28;20427;-37
2021/11/04 03:18:00;;;;;;;83.07;35.08;;;7.00;91.10;;;;;;5072697;28;20020;-37
2021/11/04 03:20:26;;;;;;;73.53;33.45;;;6.90;91.00;;;;;;5073097;28;20035;-37
2021/11/04 03:22:53;;;;;;;85.13;34.35;;;7.00;91.40;;;;;;5073016;28;20033;-37
2021/11/04 03:25:20;;;;;;;83.43;34.17;;;7.00;91.10;;;;;;5072993;28;20072;-36
2021/11/04 03:27:50;;;;;;;73.70;32.40;;;6.90;91.10;;;;;;5075350;28;20520;-36
2021/11/04 03:30:19;;;;;;;75.25;34.63;;;7.00;91.00;;;;;;5076806;28;20380;-37
2021/11/04 03:32:46;;;;;;;88.88;33.90;;;7.00;90.80;;;;;;5076575;28;20025;-37
2021/11/04 03:35:13;;;;;;;79.60;33.63;;;6.90;90.90;;;;;;5076765;28;20081;-37
2021/11/04 03:37:43;;;;;;;82.75;35.75;;;6.90;91.10;;;;;;5076491;28;20024;-37
2021/11/04 03:40:10;;;;;;;83.50;33.92;;;6.90;91.30;;;;;;5076249;28;20068;-38
2021/11/04 03:42:36;;;;;;;87.22;38.88;;;6.90;91.10;;;;;;5074963;28;20361;-38
2021/11/04 03:45:03;;;;;;;90.72;35.65;;;6.90;91.20;;;;;;5076500;28;20524;-38
2021/11/04 03:47:30;;;;;;;87.35;38.58;;;7.00;91.20;;;;;;5076028;28;20492;-37
2021/11/04 03:49:57;;;;;;;81.20;36.17;;;7.00;91.30;;;;;;5076571;28;20016;-38
2021/11/04 03:52:23;;;;;;;85.95;36.83;;;7.00;91.10;;;;;;5075978;28;20035;-38
2021/11/04 03:54:49;;;;;;;90.18;35.42;;;7.00;91.00;;;;;;5076382;28;20044;-38
2021/11/04 03:57:17;;;;;;;83.43;33.65;;;6.90;91.00;;;;;;5076258;28;20032;-38
2021/11/04 03:59:43;;;;;;;85.18;35.83;;;6.90;91.00;;;;;;5075965;28;20032;-38
2021/11/04 04:02:09;;;;;;;87.80;34.80;;;7.00;91.20;;;;;;5075851;28;20104;-38
2021/11/04 04:04:36;;;;;;;79.45;33.88;;;7.10;90.70;;;;;;5076488;28;20107;-38
2021/11/04 04:07:02;;;;;;;83.13;34.55;;;7.10;90.50;;;;;;5074456;28;20044;-38
2021/11/04 04:09:27;;;;;;;83.07;32.67;;;7.00;90.50;;;;;;5076089;28;20103;-38
2021/11/04 04:11:54;;;;;;;79.05;33.70;;;7.00;90.50;;;;;;5076091;28;20077;-38
2021/11/04 04:14:20;;;;;;;78.72;32.50;;;7.10;90.40;;;;;;5074538;28;20073;-38
2021/11/04 04:16:47;;;;;;;77.53;32.63;;;7.10;90.00;;;;;;5075827;28;20101;-37
2021/11/04 04:19:12;;;;;;;84.13;33.85;;;7.00;90.10;;;;;;5075995;28;20047;-37
2021/11/04 04:21:38;;;;;;;86.35;34.45;;;6.90;90.50;;;;;;5075768;28;20025;-37
2021/11/04 04:24:04;;;;;;;86.85;34.25;;;6.90;90.40;;;;;;5075676;28;20394;-37
2021/11/04 04:26:30;;;;;;;74.97;30.20;;;6.90;90.80;;;;;;5075700;28;20123;-37
2021/11/04 04:28:56;;;;;;;86.53;30.88;;;6.80;90.50;;;;;;5075548;28;20103;-38
2021/11/04 04:31:22;;;;;;;91.30;34.10;;;6.80;90.80;;;;;;5075428;28;20032;-38
2021/11/04 04:33:47;;;;;;;94.05;35.35;;;6.90;90.90;;;;;;5074832;28;20031;-37
2021/11/04 04:36:13;;;;;;;77.05;30.25;;;6.90;90.50;;;;;;5075741;28;20027;-38
2021/11/04 04:38:39;;;;;;;84.80;33.67;;;6.80;90.80;;;;;;5075239;28;20441;-36
2021/11/04 04:41:05;;;;;;;76.57;33.28;;;6.80;91.10;;;;;;5075362;28;20100;-38
2021/11/04 04:43:31;;;;;;;76.75;32.70;;;6.80;91.10;;;;;;5075156;28;20094;-39
2021/11/04 04:45:56;;;;;;;89.25;33.33;;;6.80;90.80;;;;;;5075200;28;20068;-38
2021/11/04 04:48:22;;;;;;;73.88;31.25;;;6.80;90.60;;;;;;5075591;28;20443;-38
2021/11/04 04:50:48;;;;;;;76.45;30.30;;;6.80;90.60;;;;;;5075011;28;20067;-37
2021/11/04 04:53:13;;;;;;;80.00;31.98;;;6.80;90.80;;;;;;5075077;28;20021;-37
2021/11/04 04:55:39;;;;;;;70.20;30.48;;;6.80;90.50;;;;;;5075159;28;20057;-38
2021/11/04 04:58:06;;;;;;;88.63;33.55;;;6.80;90.50;;;;;;5075349;28;20544;-38
2021/11/04 05:00:32;;;;;;;76.63;30.88;;;6.70;90.80;;;;;;5075258;28;20388;-37
2021/11/04 05:02:58;;;;;;;77.15;31.42;;;6.60;90.90;;;;;;5075023;28;20028;-37
2021/11/04 05:05:24;;;;;;;76.28;28.85;;;6.50;91.40;;;;;;5074841;28;20119;-37
2021/11/04 05:07:50;;;;;;;72.30;30.25;;;6.40;91.40;;;;;;5075003;28;20065;-37
2021/11/04 05:10:16;;;;;;;87.75;35.00;;;6.50;91.20;;;;;;5074750;28;20047;-37
2021/11/04 05:12:42;;;;;;;81.70;30.30;;;6.70;90.90;;;;;;5075100;28;20491;-37
2021/11/04 05:15:08;;;;;;;82.85;33.10;;;6.70;90.60;;;;;;5074686;28;20127;-37
2021/11/04 05:17:36;;;;;;;80.15;30.90;;;6.70;90.80;;;;;;5074322;28;20048;-37
2021/11/04 05:20:06;;;;;;;81.47;31.45;;;6.70;90.80;;;;;;5074378;28;20490;-37
2021/11/04 05:22:32;;;;;;;77.10;30.40;;;6.80;90.60;;;;;;5074344;28;20101;-38
2021/11/04 05:25:01;;;;;;;77.22;30.58;;;6.80;90.50;;;;;;5074496;28;20060;-38
2021/11/04 05:27:28;;;;;;;87.70;30.98;;;6.70;90.10;;;;;;5074130;28;20024;-38
2021/11/04 05:29:54;;;;;;;86.40;34.13;;;6.80;90.40;;;;;;5074074;28;20082;-38
2021/11/04 05:32:22;;;;;;;92.30;32.20;;;6.60;90.40;;;;;;5073475;28;20419;-37
2021/11/04 05:34:47;;;;;;;90.00;32.10;;;6.30;91.20;;;;;;5073588;28;20025;-37
2021/11/04 05:37:13;;;;;;;84.63;33.75;;;6.40;91.60;;;;;;5071962;28;20418;-37
2021/11/04 05:39:39;;;;;;;84.65;33.20;;;6.30;91.60;;;;;;5073407;28;20100;-37
2021/11/04 05:42:06;;;;;;;90.38;36.53;;;6.40;91.70;;;;;;5073554;28;20047;-37
2021/11/04 05:44:32;;;;;;;83.15;31.73;;;6.50;91.40;;;;;;5073370;28;20039;-38
2021/11/04 05:46:58;;;;;;;74.75;29.08;;;6.50;91.20;;;;;;5073707;28;20071;-37
2021/11/04 05:49:24;;;;;;;80.80;29.05;;;6.50;91.00;;;;;;5073052;28;20055;-37
2021/11/04 05:51:50;;;;;;;66.15;27.77;;;6.40;91.00;;;;;;5071822;28;20024;-37
2021/11/04 05:54:15;;;;;;;69.65;26.95;;;6.40;90.80;;;;;;5073608;28;20039;-37
2021/11/04 05:56:41;;;;;;;76.97;30.45;;;6.50;90.90;;;;;;5073305;28;20025;-37
2021/11/04 05:59:07;;;;;;;80.18;28.65;;;6.70;90.60;;;;;;5071887;28;20030;-37
2021/11/04 06:01:33;;;;;;;70.80;28.98;;;6.70;90.00;;;;;;5073691;28;20077;-37
2021/11/04 06:03:58;;;;;;;69.05;27.77;;;6.60;89.90;;;;;;5073749;28;20021;-36
2021/11/04 06:06:24;;;;;;;73.38;28.08;;;6.50;90.30;;;;;;5072262;28;20055;-37
2021/11/04 06:08:50;;;;;;;64.13;27.77;;;6.40;90.40;;;;;;5073902;28;20020;-37
2021/11/04 06:11:15;;;;;;;70.88;26.95;;;6.50;90.70;;;;;;5073650;28;20032;-37
2021/11/04 06:13:41;;;;;;;67.68;29.70;;;6.60;90.50;;;;;;5073414;28;20024;-39
2021/11/04 06:16:13;;;;;;;82.43;31.58;;;6.50;90.50;;;;;;5073879;28;20020;-36
2021/11/04 06:18:40;;;;;;;78.60;30.70;;;6.30;90.40;;;;;;5073221;28;20028;-36
2021/11/04 06:21:07;;;;;;;82.55;32.67;;;6.20;91.00;;;;;;5073605;28;20409;-36
2021/11/04 06:23:32;;;;;;;84.13;29.58;;;6.30;91.20;;;;;;5073213;28;20031;-37
2021/11/04 06:25:58;;;;;;;61.65;27.48;;;6.30;90.90;;;;;;5072951;28;20037;-37
2021/11/04 06:28:24;;;;;;;71.38;29.17;;;6.30;90.90;;;;;;5073053;28;20037;-36
2021/11/04 06:30:49;;;;;;;67.45;26.88;;;6.30;90.90;;;;;;5073197;28;20460;-37
2021/11/04 06:33:15;;;;;;;75.05;28.00;;;6.40;90.50;;;;;;5073345;28;20445;-37
2021/11/04 06:35:40;;;;;;;62.85;27.77;;;6.30;90.60;;;;;;5073012;28;20020;-37
2021/11/04 06:38:07;;;;;;;72.55;29.70;;;6.40;90.30;;;;;;5072851;28;20021;-36
2021/11/04 06:40:32;;;;;;;77.85;26.95;;;6.40;90.60;;;;;;5072936;28;20032;-36
2021/11/04 06:42:58;;;;;;;75.53;29.42;;;6.30;90.90;;;;;;5073510;28;20103;-36
2021/11/04 06:45:24;;;;;;;76.43;30.08;;;6.30;90.80;;;;;;5073343;28;20116;-36
2021/11/04 06:47:52;;;;;;;74.80;31.23;;;6.30;90.90;;;;;;5072918;28;20480;-37
2021/11/04 06:50:20;;;;;;;75.85;29.58;;;6.20;91.30;;;;;;5071496;28;20035;-37
2021/11/04 06:53:05;;;;;;;74.57;31.83;;;6.30;91.20;;;;;;5073244;28;20024;-37
2021/11/04 06:55:32;;;;;;;78.45;31.02;;;6.30;91.20;;;;;;5072851;28;20103;-36
2021/11/04 06:58:01;;;;;;;71.20;29.77;;;6.20;91.10;;;;;;5072757;28;20031;-36
2021/11/04 07:00:30;;;;;;;80.70;31.42;;;6.10;91.40;;;;;;5073167;28;20024;-37
2021/11/04 07:03:11;;;;;;;74.85;30.42;;;6.10;91.60;;;;;;5075633;28;20388;-37
2021/11/04 07:05:36;;;;;;;74.20;29.48;;;6.10;91.50;;;;;;5076822;28;20053;-36
2021/11/04 07:08:04;;;;;;;74.88;30.08;;;6.10;91.70;;;;;;5077133;28;20079;-37
2021/11/04 07:10:30;;;;;;;75.72;29.55;;;6.10;91.60;;;;;;5076600;28;20016;-36
2021/11/04 07:12:56;;;;;;;78.10;29.65;;;6.10;91.30;;;;;;5076971;28;20073;-36
2021/11/04 07:15:22;;;;;;;73.43;28.50;;;6.20;91.20;;;;;;5076602;28;20024;-37
2021/11/04 07:17:49;;;;;;;74.78;30.15;;;6.30;90.90;;;;;;5076567;28;20027;-37
2021/11/04 07:20:16;;;;;;;68.85;27.65;;;6.30;90.50;;;;;;5076496;28;20024;-38
2021/11/04 07:22:51;;;;;;;78.30;30.85;;;6.20;90.70;;;;;;5077538;28;20028;-37
2021/11/04 07:25:21;;;;;;;71.07;29.55;;;6.20;91.30;;;;;;5076506;28;20032;-38
2021/11/04 07:27:58;;;;;;;73.88;27.85;;;6.10;91.60;;;;;;5076540;28;20104;-37
2021/11/04 07:30:24;;;;;;;68.78;29.50;;;6.10;91.60;;;;;;5076662;28;20025;-37
2021/11/04 07:32:56;;;;;;;66.40;29.02;;;6.20;91.30;;;;;;5076203;28;20048;-39
2021/11/04 07:35:24;;;;;;;76.20;28.65;;;6.00;91.30;;;;;;5074809;28;20032;-39
2021/11/04 07:37:50;;;;;;;83.18;28.50;;;6.00;91.70;;;;;;5076622;28;20408;-37
2021/11/04 07:40:19;;;;;;;67.38;29.33;;;5.80;92.10;;;;;;5058083;28;20056;-37
2021/11/04 07:42:45;;;;;;;69.82;28.35;;;5.80;92.10;;;;;;5076379;28;20029;-38
2021/11/04 07:45:12;;;;;;;73.95;28.10;;;5.80;91.90;;;;;;5076074;28;20042;-37
2021/11/04 07:47:40;;;;;;;71.15;30.50;;;5.90;92.00;;;;;;5075992;28;20127;-38
2021/11/04 07:50:07;;;;;;;74.78;28.95;;;6.00;91.70;;;;;;5075937;28;20101;-38
2021/11/04 07:52:35;;;;;;;68.60;25.67;;;6.10;91.60;;;;;;5076348;28;20047;-37
2021/11/04 07:55:03;;;;;;;69.45;28.80;;;6.10;91.20;;;;;;5076058;28;20071;-38
2021/11/04 07:57:31;;;;;;;68.72;26.02;;;6.30;91.10;;;;;;5076112;28;20016;-38
2021/11/04 07:59:56;;;;;;;74.93;30.23;;;6.40;91.10;;;;;;5075825;28;20127;-38
2021/11/04 08:02:22;;;;;;;71.78;27.65;;;6.40;90.60;;;;;;5074313;28;20090;-38
2021/11/04 08:04:48;;;;;;;69.95;29.00;;;6.50;90.60;;;;;;5076220;28;20020;-36
2021/11/04 08:07:13;;;;;;;81.65;29.85;;;6.30;90.70;;;;;;5076061;28;20040;-38
2021/11/04 08:09:40;;;;;;;79.05;30.23;;;6.40;90.80;;;;;;5074694;28;20094;-37
2021/11/04 08:12:07;;;;;;;68.18;27.15;;;6.60;90.30;;;;;;5075403;28;20027;-36
2021/11/04 08:14:32;;;;;;;67.80;26.42;;;6.40;90.00;;;;;;5075458;28;20103;-36
2021/11/04 08:16:58;;;;;;;58.30;24.52;;;6.30;90.00;;;;;;5075517;28;20147;-38
2021/11/04 08:19:24;;;;;;;72.05;26.55;;;6.30;90.40;;;;;;5075061;28;20350;-36
2021/11/04 08:21:49;;;;;;;66.72;27.48;;;6.30;90.50;;;;;;5075052;28;20463;-37
2021/11/04 08:24:15;;;;;;;70.00;28.55;;;6.30;90.60;;;;;;5074496;28;20028;-37
2021/11/04 08:26:41;;;;;;;74.60;29.17;;;6.20;90.40;;;;;;5074824;28;20443;-42
2021/11/04 08:29:07;;;;;;;87.63;30.25;;;6.30;90.90;;;;;;5074814;28;20024;-38
2021/11/04 08:31:33;;;;;;;66.97;27.98;;;6.30;90.60;;;;;;5073376;28;20070;-37
2021/11/04 08:33:59;;;;;;;61.65;24.13;;;6.30;90.80;;;;;;5074895;28;20028;-40
2021/11/04 08:36:25;;;;;;;65.85;26.35;;;6.40;90.70;;;;;;5074018;28;20032;-48
2021/11/04 08:38:51;;;;;;;79.75;28.77;;;6.20;91.30;;;;;;5074883;28;20029;-50
2021/11/04 08:41:17;;;;;;;76.85;27.63;;;6.30;91.40;;;;;;5074029;28;20049;-51
2021/11/04 08:43:43;;;;;;;77.05;28.23;;;6.30;91.40;;;;;;5072970;28;20119;-49
2021/11/04 08:46:08;;;;;;;75.40;28.55;;;6.30;91.30;;;;;;5074201;28;20056;-50
2021/11/04 08:48:35;;;;;;;73.05;30.80;;;6.50;91.30;;;;;;5074532;28;20020;-49
2021/11/04 08:51:02;;;;;;;86.75;33.28;;;6.60;91.00;;;;;;5074383;28;20036;-48
2021/11/04 08:53:28;;;;;;;95.32;31.55;;;6.80;90.40;;;;;;5072690;28;20041;-51
2021/11/04 08:55:53;;;;;;;94.90;33.22;;;6.90;90.20;;;;;;5074591;28;20065;-49
2021/11/04 08:58:19;;;;;;;99.70;35.45;;;6.80;90.00;;;;;;5073468;28;20402;-49
2021/11/04 09:00:45;;;;;;;97.43;32.92;;;6.80;90.20;;;;;;5074131;28;20028;-50
2021/11/04 09:03:11;;;;;;;90.90;33.78;;;6.80;90.50;;;;;;5074183;28;20105;-50
2021/11/04 09:05:39;;;;;;;91.85;30.83;;;6.90;90.00;;;;;;5073573;28;20048;-49
2021/11/04 09:08:06;;;;;;;68.35;27.13;;;7.00;89.70;;;;;;5073864;28;20086;-52
2021/11/04 09:10:32;;;;;;;56.65;23.98;;;7.10;90.00;;;;;;5073531;28;20028;-50
2021/11/04 09:12:58;;;;;;;56.05;22.98;;;7.30;88.90;;;;;;5072127;28;20024;-49
2021/11/04 09:15:24;;;;;;;50.83;22.38;;;7.30;88.50;;;;;;5073395;28;20097;-48
2021/11/04 09:17:49;;;;;;;55.42;21.65;;;7.70;86.90;;;;;;5073156;28;20124;-48
2021/11/04 09:20:17;;;;;;;59.28;25.75;;;7.60;86.80;;;;;;5074045;28;20060;-51
2021/11/04 09:22:49;;;;;;;62.40;25.90;;;7.60;86.70;;;;;;5073612;28;20081;-48
2021/11/04 09:25:18;;;;;;;64.75;28.40;;;7.30;87.90;;;;;;5073052;28;20025;-51
2021/11/04 09:27:45;;;;;;;73.03;31.88;;;7.30;88.90;;;;;;5073858;28;20051;-47
2021/11/04 09:30:11;;;;;;;82.05;33.22;;;7.60;88.30;;;;;;5072077;28;20025;-48
2021/11/04 09:32:36;;;;;;;69.57;28.73;;;7.80;87.60;;;;;;5073041;28;20028;-50
2021/11/04 09:35:03;;;;;;;72.45;30.13;;;7.60;88.00;;;;;;5073016;28;20039;-47
2021/11/04 09:37:28;;;;;;;68.07;28.20;;;7.80;87.60;;;;;;5073436;28;20424;-48
2021/11/04 09:39:54;;;;;;;67.05;27.27;;;8.00;87.20;;;;;;5073195;28;20035;-49
2021/11/04 09:42:24;;;;;;;65.65;27.98;;;8.30;86.60;;;;;;5073066;28;20025;-47
2021/11/04 09:44:52;;;;;;;72.57;27.08;;;8.30;86.60;;;;;;5073305;28;20044;-48
2021/11/04 09:47:26;;;;;;;62.38;25.88;;;8.10;86.90;;;;;;5073141;28;20024;-48
2021/11/04 09:49:56;;;;;;;68.57;26.30;;;8.20;86.80;;;;;;5073190;28;20460;-51
2021/11/04 09:52:28;;;;;;;67.70;27.05;;;8.00;86.90;;;;;;5073228;28;20028;-47
2021/11/04 09:54:54;;;;;;;69.00;24.70;;;7.80;87.10;;;;;;5071764;28;20395;-48
2021/11/04 09:57:25;;;;;;;67.40;26.35;;;7.80;87.50;;;;;;5071736;28;20120;-47
2021/11/04 09:59:51;;;;;;;;;;;7.50;88.10;;;;;;5073757;28;20441;-50
2021/11/04 10:02:22;;;;;;;70.88;28.13;;;7.80;87.90;;;;;;5071219;28;19905;-49
2021/11/04 10:04:49;;;;;;;72.32;25.95;;;7.80;87.80;;;;;;5072775;28;20032;-48
2021/11/04 10:07:17;;;;;;;77.68;28.58;;;8.10;87.30;;;;;;5073254;28;20151;-48
2021/11/04 10:09:57;;;;;;;64.00;25.83;;;8.30;86.90;;;;;;5073556;28;20035;-47
2021/11/04 10:12:23;;;;;;;74.75;29.60;;;8.20;86.20;;;;;;5073344;28;20066;-48
2021/11/04 10:14:50;;;;;;;70.60;26.98;;;8.30;86.20;;;;;;5072543;28;20121;-50
2021/11/04 10:17:37;;;;;;;75.05;26.50;;;8.20;86.40;;;;;;5073013;28;20090;-49
2021/11/04 10:20:14;;;;;;;84.75;35.25;;;8.20;86.80;;;;;;5071578;28;20490;-48
2021/11/04 10:22:40;;;;;;;79.40;31.48;;;8.00;87.10;;;;;;5072812;28;20028;-47
2021/11/04 10:25:19;;;;;;;83.28;29.80;;;7.80;88.00;;;;;;5072342;28;20133;-47
2021/11/04 10:27:45;;;;;;;85.47;33.00;;;7.80;88.00;;;;;;5072628;28;20021;-49
2021/11/04 10:30:36;;;;;;;91.68;34.15;;;8.00;88.00;;;;;;5071038;28;20025;-48
2021/11/04 10:33:17;;;;;;;83.82;35.17;;;8.00;87.50;;;;;;5072377;28;20465;-49
2021/11/04 10:35:43;;;;;;;68.40;28.65;;;8.20;86.90;;;;;;5072110;28;20021;-49
2021/11/04 10:38:08;;;;;;;62.78;25.33;;;8.20;86.80;;;;;;5070857;28;20101;-48
2021/11/04 10:40:34;;;;;;;63.55;29.17;;;8.30;86.80;;;;;;5072535;28;20028;-47
2021/11/04 10:42:59;;;;;;;64.85;26.17;;;8.30;86.10;;;;;;5072831;28;20067;-49
2021/11/04 10:45:27;;;;;;;64.78;25.85;;;8.40;86.20;;;;;;5072561;28;20031;-48
2021/11/04 10:48:16;;;;;;;62.85;26.50;;;8.60;85.80;;;;;;5072474;28;20024;-51
2021/11/04 10:50:44;;;;;;;61.47;25.15;;;8.60;85.80;;;;;;5072083;28;20024;-47
2021/11/04 10:53:23;;;;;;;63.40;25.23;;;8.80;84.60;;;;;;5071209;28;20317;-49
2021/11/04 10:55:56;;;;;;;72.70;29.42;;;8.60;85.40;;;;;;5070766;28;20024;-47
2021/11/04 10:58:32;;;;;;;59.25;26.83;;;8.60;85.90;;;;;;5071846;28;20031;-51
2021/11/04 11:00:59;;;;;;;64.45;25.52;;;8.80;85.10;;;;;;5072446;28;20032;-47
2021/11/04 11:03:26;;;;;;;58.22;27.00;;;9.00;84.00;;;;;;5072206;28;20025;-47
2021/11/04 11:05:56;;;;;;;68.63;28.63;;;9.10;83.90;;;;;;5070569;28;20074;-48
2021/11/04 11:08:24;;;;;;;57.50;25.48;;;9.20;83.20;;;;;;5072511;28;20150;-47
2021/11/04 11:10:50;;;;;;;58.45;27.27;;;9.10;84.30;;;;;;5072254;28;20048;-49
2021/11/04 11:13:16;;;;;;;66.35;28.75;;;8.80;84.40;;;;;;5071951;28;20021;-48
2021/11/04 11:15:43;;;;;;;75.55;31.38;;;8.60;86.00;;;;;;5071900;28;20032;-48
2021/11/04 11:18:09;;;;;;;74.40;34.08;;;8.60;86.10;;;;;;5072110;28;20162;-47
2021/11/04 11:20:43;;;;;;;68.93;31.45;;;8.50;86.80;;;;;;5072346;28;20059;-49
2021/11/04 11:23:11;;;;;;;78.70;34.40;;;8.50;87.10;;;;;;5070728;28;20108;-47
2021/11/04 11:25:38;;;;;;;78.28;35.42;;;8.80;86.40;;;;;;5071696;28;20021;-47
2021/11/04 11:28:04;;;;;;;83.47;34.50;;;8.70;86.10;;;;;;5071923;28;20448;-48
2021/11/04 11:30:30;;;;;;;92.90;35.55;;;8.70;85.70;;;;;;5071706;28;20025;-48
2021/11/04 11:33:15;;;;;;;80.05;35.55;;;8.50;87.00;;;;;;5071832;28;20456;-50
2021/11/04 11:35:42;;;;;;;87.50;36.10;;;8.60;86.70;;;;;;5071760;28;20400;-49
2021/11/04 11:38:07;;;;;;;70.25;33.22;;;8.50;87.00;;;;;;5070404;28;20491;-49
2021/11/04 11:40:37;;;;;;;85.28;35.80;;;8.40;87.20;;;;;;5071821;28;20028;-46
2021/11/04 11:43:12;;;;;;;70.17;32.00;;;8.40;86.90;;;;;;5071518;28;20024;-49
2021/11/04 11:45:41;;;;;;;72.00;32.50;;;8.60;86.90;;;;;;5071542;28;20033;-47
2021/11/04 11:48:24;;;;;;;74.68;34.03;;;8.80;86.10;;;;;;5074390;28;20059;-47
2021/11/04 11:50:55;;;;;;;81.07;34.47;;;8.40;86.30;;;;;;5074388;28;20431;-49
2021/11/04 11:53:25;;;;;;;74.32;34.63;;;8.50;86.60;;;;;;5075206;28;20035;-51
2021/11/04 11:55:53;;;;;;;68.68;31.58;;;8.40;86.70;;;;;;5075266;28;20080;-48
2021/11/04 11:58:22;;;;;;;83.80;38.35;;;8.30;86.80;;;;;;5075823;28;20021;-50
2021/11/04 12:01:03;;;;;;;66.63;32.20;;;8.30;86.90;;;;;;5076223;28;20067;-53
2021/11/04 12:03:31;;;;;;;66.25;32.83;;;8.50;86.20;;;;;;5076098;28;20025;-50
2021/11/04 12:05:58;;;;;;;66.28;30.65;;;8.30;86.40;;;;;;5074984;28;20057;-50
2021/11/04 12:08:27;;;;;;;59.55;31.63;;;8.30;86.60;;;;;;5073742;28;20089;-49
2021/11/04 12:10:53;;;;;;;66.75;29.83;;;8.40;86.20;;;;;;5075243;28;20051;-49
2021/11/04 12:13:40;;;;;;;64.00;32.40;;;8.50;85.60;;;;;;5075133;28;20066;-50
2021/11/04 12:16:19;;;;;;;71.28;35.50;;;8.50;85.60;;;;;;5075586;28;20089;-49
2021/11/04 12:19:00;;;;;;;71.05;35.35;;;8.60;85.80;;;;;;5075210;28;20025;-51
2021/11/04 12:21:25;;;;;;;;;;;8.30;86.40;;;;;;5075470;28;20083;-50
2021/11/04 12:23:52;;;;;;;77.60;37.40;;;8.40;86.40;;;;;;5075297;28;20284;-52
2021/11/04 12:26:33;;;;;;;73.03;35.90;;;8.80;85.80;;;;;;5074927;28;20024;-51
2021/11/04 12:29:00;;;;;;;67.65;34.92;;;9.10;84.50;;;;;;5075238;28;20071;-50
2021/11/04 12:31:28;;;;;;;69.13;36.58;;;9.00;84.50;;;;;;5075608;28;20029;-50
2021/11/04 12:33:55;;;;;;;79.55;36.85;;;9.20;84.10;;;;;;5074921;28;20028;-47
2021/11/04 12:36:33;;;;;;;68.30;35.08;;;9.40;83.30;;;;;;5073603;28;20358;-49
2021/11/04 12:39:00;;;;;;;75.30;38.10;;;9.40;83.30;;;;;;5074737;28;20476;-48